首页
METAR-TAF:

METAR-TAF

机场 :

卢森堡-芬德尔国际机场

卢森堡, 卢森堡

纬度: 49-37N, 经度: 006-13E, 海拔: 376米

当前天气观测

该预报发布于18分钟前的16:50 UTC
风速9节,风向东转东北
温度 1°C
湿度 93%
气压 1012 hPa
能见度10公里或以上
1500米以下无云,无积雨云

METAR: ELLX 201650Z 06009KT CAVOK 01/M00 Q1012 NOSIG

时间: 18:08 (17:08 UTC)

预报

该预报发布于3小时和8分钟前的14:00 UTC
预报有效从20日的 14点(UTC)到 21日的 18点(UTC)
风速8节,风向东北
能见度10公里或以上
散云层高于1000英尺
成为
从 20日的 19点(UTC)到 20日的 22点(UTC)
能見度: 0300
层高于300英尺
冻雾
成为
从 21日的 09点(UTC)到 21日的 12点(UTC)
风速12节,风向东南
能见度10公里或以上
多云层高于1000英尺

TAF: ELLX 201400Z 2014/2118 05008KT 9999 SCT010 BECMG 2019/2022 0300 FZFG VV003 BECMG 2109/2112 14012KT 9999 BKN010

超过4000个机场的气象观测和天气预报(METAR&TAF报告)。

可查询的气象台以黄色和红色小点在地图上表示。

将鼠标移到小点上方,可查看气象台名称。

然后点击查看天气观测和预报。

如需切换地图:点击带黑十字的绿色按钮放大地图;点击带横线的绿色按钮缩小地图;或者点击绿色箭头查看邻近地区的地图。


METAR-TAF: